Time;durP1;ratioP1;P1;durP2;ratioP2;P2;SDS_P1;SDS_P2;PMS_P1;PMS_P2;Temp;Humidity;BMP_temperature;BMP_pressure;BME280_temperature;BME280_humidity;BME280_pressure;Samples;Min_cycle;Max_cycle;Signal;HPM_P1;HPM_P2
2023/08/22 00:01:12;;;;;;;5.40;0.68;;;;;;;;;;5072149;28;20491;-64
2023/08/22 00:03:39;;;;;;;0.68;0.40;;;;;;;;;;5072424;28;20061;-64
2023/08/22 00:06:07;;;;;;;0.30;0.25;;;;;;;;;;5072587;28;20028;-63
2023/08/22 00:08:34;;;;;;;1.92;0.68;;;;;;;;;;5072349;28;20039;-63
2023/08/22 00:11:00;;;;;;;2.65;0.55;;;;;;;;;;5069559;28;20101;-64
2023/08/22 00:13:27;;;;;;;2.60;0.63;;;;;;;;;;5067027;28;20024;-63
2023/08/22 00:16:03;;;;;;;3.05;0.70;;;;;;;;;;5066586;28;20029;-63
2023/08/22 00:18:30;;;;;;;25.42;1.13;;;;;;;;;;5067343;28;20028;-63
2023/08/22 00:20:57;;;;;;;1.25;0.52;;;;;;;;;;5052088;28;20086;-64
2023/08/22 00:23:24;;;;;;;3.42;1.10;;;;;;;;;;5072391;28;20463;-63
2023/08/22 00:25:52;;;;;;;1.85;0.82;;;;;;;;;;5072158;28;20050;-63
2023/08/22 00:28:18;;;;;;;1.75;0.85;;;;;;;;;;5054536;28;20032;-63
2023/08/22 00:30:45;;;;;;;9.95;0.63;;;;;;;;;;5072019;28;20467;-63
2023/08/22 00:33:15;;;;;;;0.70;0.45;;;;;;;;;;5068940;28;20036;-63
2023/08/22 00:35:42;;;;;;;1.05;0.70;;;;;;;;;;5066931;28;20028;-63
2023/08/22 00:38:10;;;;;;;14.07;0.93;;;;;;;;;;5048530;28;20028;-64
2023/08/22 00:40:38;;;;;;;0.35;0.32;;;;;;;;;;5066882;28;20051;-63
2023/08/22 00:43:04;;;;;;;3.15;1.33;;;;;;;;;;5069215;28;20028;-63
2023/08/22 00:45:31;;;;;;;1.63;0.82;;;;;;;;;;5071183;28;20021;-63
2023/08/22 00:47:58;;;;;;;2.63;1.02;;;;;;;;;;5072183;28;20555;-63
2023/08/22 00:50:25;;;;;;;12.20;0.85;;;;;;;;;;5072118;28;20016;-62
2023/08/22 00:52:52;;;;;;;58.30;10.35;;;;;;;;;;5072024;28;20021;-63
2023/08/22 00:55:19;;;;;;;4.53;2.17;;;;;;;;;;5069235;28;20028;-63
2023/08/22 00:57:47;;;;;;;15.00;1.65;;;;;;;;;;5066798;28;20021;-62
2023/08/22 01:00:14;;;;;;;4.95;1.80;;;;;;;;;;5048409;28;20032;-62
2023/08/22 01:02:41;;;;;;;5.65;2.38;;;;;;;;;;5048895;28;20035;-63
2023/08/22 01:05:08;;;;;;;2.42;1.33;;;;;;;;;;5050952;28;20032;-62
2023/08/22 01:07:53;;;;;;;13.73;1.02;;;;;;;;;;5072082;28;20048;-63
2023/08/22 01:10:20;;;;;;;;;;;;;;;;;;5072147;28;20040;-63
2023/08/22 01:12:59;;;;;;;7.75;2.03;;;;;;;;;;5071658;28;19908;-63
2023/08/22 01:15:28;;;;;;;5.88;0.82;;;;;;;;;;5071450;28;20056;-63
2023/08/22 01:17:55;;;;;;;29.73;6.57;;;;;;;;;;5068209;28;20028;-63
2023/08/22 01:20:24;;;;;;;22.58;7.78;;;;;;;;;;5066490;28;20507;-62
2023/08/22 01:22:51;;;;;;;27.48;5.60;;;;;;;;;;5066357;28;20021;-62
2023/08/22 01:25:18;;;;;;;14.10;3.27;;;;;;;;;;5066511;28;20017;-63
2023/08/22 01:28:08;;;;;;;11.57;2.03;;;;;;;;;;5069093;28;20028;-63
2023/08/22 01:30:45;;;;;;;11.73;4.57;;;;;;;;;;5070883;28;20032;-62
2023/08/22 01:33:41;;;;;;;16.63;6.17;;;;;;;;;;5071073;28;20073;-62
2023/08/22 01:36:17;;;;;;;18.40;5.60;;;;;;;;;;5054571;28;20033;-62
2023/08/22 01:38:50;;;;;;;15.60;4.40;;;;;;;;;;5071472;28;20024;-62
2023/08/22 01:41:17;;;;;;;16.27;4.70;;;;;;;;;;5066352;28;20056;-63
2023/08/22 01:43:44;;;;;;;17.10;5.00;;;;;;;;;;5065920;28;20032;-62
2023/08/22 01:46:11;;;;;;;12.60;5.50;;;;;;;;;;5065763;28;20024;-63
2023/08/22 01:48:38;;;;;;;5.23;3.13;;;;;;;;;;5066232;28;20129;-63
2023/08/22 01:51:05;;;;;;;7.00;3.00;;;;;;;;;;5054877;28;20029;-63
2023/08/22 01:53:32;;;;;;;12.43;4.27;;;;;;;;;;5075105;28;20036;-62
2023/08/22 01:55:59;;;;;;;21.00;3.37;;;;;;;;;;5075086;28;20035;-63
2023/08/22 01:58:26;;;;;;;31.83;2.63;;;;;;;;;;5074571;28;20112;-62
2023/08/22 02:00:53;;;;;;;3.63;0.67;;;;;;;;;;5075016;28;20108;-62
2023/08/22 02:03:21;;;;;;;2.27;0.97;;;;;;;;;;5069621;28;20237;-62
2023/08/22 02:05:47;;;;;;;20.40;1.53;;;;;;;;;;5069315;28;20033;-62
2023/08/22 02:08:14;;;;;;;1.67;0.90;;;;;;;;;;5069637;28;20398;-62
2023/08/22 02:10:41;;;;;;;12.13;0.83;;;;;;;;;;5069052;28;20031;-62
2023/08/22 02:13:08;;;;;;;1.73;0.70;;;;;;;;;;5074127;28;20043;-62
2023/08/22 02:15:34;;;;;;;3.67;1.13;;;;;;;;;;5074424;28;20023;-62
2023/08/22 02:18:02;;;;;;;1.33;0.90;;;;;;;;;;5057116;28;20418;-62
2023/08/22 02:20:28;;;;;;;3.77;1.63;;;;;;;;;;5074334;28;20504;-62
2023/08/22 02:22:55;;;;;;;3.63;0.97;;;;;;;;;;5074716;28;20032;-62
2023/08/22 02:25:22;;;;;;;0.83;0.50;;;;;;;;;;5069291;28;20067;-62
2023/08/22 02:27:49;;;;;;;6.77;1.30;;;;;;;;;;5069246;28;20074;-62
2023/08/22 02:30:15;;;;;;;1.63;0.83;;;;;;;;;;5068715;28;20025;-62
2023/08/22 02:32:42;;;;;;;15.30;2.23;;;;;;;;;;5068936;28;20020;-62
2023/08/22 02:35:09;;;;;;;6.47;2.10;;;;;;;;;;5073185;28;20035;-62
2023/08/22 02:37:35;;;;;;;2.40;1.00;;;;;;;;;;5074411;28;20032;-62
2023/08/22 02:40:04;;;;;;;2.70;1.27;;;;;;;;;;5074153;28;20032;-62
2023/08/22 02:42:31;;;;;;;3.07;1.00;;;;;;;;;;5073987;28;20029;-63
2023/08/22 02:44:57;;;;;;;21.07;2.63;;;;;;;;;;5074267;28;20036;-63
2023/08/22 02:47:24;;;;;;;3.53;0.93;;;;;;;;;;5069321;28;20028;-62
2023/08/22 02:49:50;;;;;;;2.13;0.70;;;;;;;;;;5068526;28;20029;-62
2023/08/22 02:52:18;;;;;;;4.10;1.03;;;;;;;;;;5068791;28;20081;-63
2023/08/22 02:54:44;;;;;;;4.23;1.23;;;;;;;;;;5068667;28;20064;-62
2023/08/22 02:57:11;;;;;;;8.13;0.90;;;;;;;;;;5072257;28;20020;-63
2023/08/22 02:59:38;;;;;;;2.27;0.70;;;;;;;;;;5072233;28;20467;-65
2023/08/22 03:02:04;;;;;;;1.33;0.57;;;;;;;;;;5072082;28;20082;-62
2023/08/22 03:04:33;;;;;;;14.23;1.67;;;;;;;;;;5073301;28;20012;-62
2023/08/22 03:07:00;;;;;;;2.93;1.20;;;;;;;;;;5073652;28;20028;-62
2023/08/22 03:09:29;;;;;;;17.20;2.47;;;;;;;;;;5069875;28;20032;-61
2023/08/22 03:11:55;;;;;;;1.93;0.53;;;;;;;;;;5068419;28;20019;-62
2023/08/22 03:14:22;;;;;;;4.90;0.90;;;;;;;;;;5068189;28;20032;-62
2023/08/22 03:16:49;;;;;;;0.77;0.53;;;;;;;;;;5068075;28;20087;-62
2023/08/22 03:19:16;;;;;;;1.03;0.67;;;;;;;;;;5070752;28;20517;-62
2023/08/22 03:21:43;;;;;;;3.50;1.20;;;;;;;;;;5071449;28;20017;-64
2023/08/22 03:24:09;;;;;;;7.00;1.20;;;;;;;;;;5073602;28;20025;-63
2023/08/22 03:26:36;;;;;;;5.10;1.00;;;;;;;;;;5073396;28;20031;-63
2023/08/22 03:29:02;;;;;;;2.73;0.97;;;;;;;;;;5073049;28;20048;-63
2023/08/22 03:31:29;;;;;;;1.50;0.67;;;;;;;;;;5069981;28;20060;-62
2023/08/22 03:33:56;;;;;;;4.73;1.50;;;;;;;;;;5067776;28;20476;-62
2023/08/22 03:36:22;;;;;;;5.13;0.50;;;;;;;;;;5067275;28;20040;-62
2023/08/22 03:38:51;;;;;;;3.90;0.97;;;;;;;;;;5068054;28;20841;-63
2023/08/22 03:41:18;;;;;;;2.00;0.60;;;;;;;;;;5070366;28;20090;-62
2023/08/22 03:43:45;;;;;;;2.20;1.00;;;;;;;;;;5072898;28;20035;-62
2023/08/22 03:46:11;;;;;;;3.30;0.87;;;;;;;;;;5073281;28;20417;-63
2023/08/22 03:48:38;;;;;;;1.03;0.70;;;;;;;;;;5072804;28;20106;-62
2023/08/22 03:51:08;;;;;;;3.40;1.17;;;;;;;;;;5072877;28;20020;-62
2023/08/22 03:53:35;;;;;;;2.07;0.80;;;;;;;;;;5070086;28;20028;-62
2023/08/22 03:56:02;;;;;;;1.47;0.73;;;;;;;;;;5067216;28;20033;-62
2023/08/22 03:58:28;;;;;;;1.57;0.87;;;;;;;;;;5067488;28;20025;-62
2023/08/22 04:00:55;;;;;;;1.17;0.60;;;;;;;;;;5067659;28;20028;-62
2023/08/22 04:03:22;;;;;;;3.33;0.57;;;;;;;;;;5069721;28;20102;-62
2023/08/22 04:05:48;;;;;;;5.93;0.97;;;;;;;;;;5072509;28;20032;-62
2023/08/22 04:08:15;;;;;;;1.20;0.70;;;;;;;;;;5072071;28;20020;-62
2023/08/22 04:10:42;;;;;;;1.90;0.97;;;;;;;;;;5072741;28;20044;-62
2023/08/22 04:13:08;;;;;;;1.47;0.77;;;;;;;;;;5067269;28;20033;-62
2023/08/22 04:15:35;;;;;;;2.60;1.30;;;;;;;;;;5061851;28;20036;-62
2023/08/22 04:18:02;;;;;;;3.47;1.40;;;;;;;;;;5057919;28;20026;-62
2023/08/22 04:20:29;;;;;;;1.43;1.00;;;;;;;;;;5067093;28;21431;-62
2023/08/22 04:22:55;;;;;;;3.53;1.43;;;;;;;;;;5067388;28;20031;-62
2023/08/22 04:25:22;;;;;;;3.07;1.40;;;;;;;;;;5068524;28;20026;-62
2023/08/22 04:27:49;;;;;;;7.30;1.27;;;;;;;;;;5072457;28;20382;-62
2023/08/22 04:30:15;;;;;;;2.37;1.47;;;;;;;;;;5072323;28;20021;-62
2023/08/22 04:32:42;;;;;;;0.87;0.60;;;;;;;;;;5072274;28;20028;-62
2023/08/22 04:35:09;;;;;;;2.97;1.13;;;;;;;;;;5072336;28;20099;-61
2023/08/22 04:37:35;;;;;;;1.07;0.60;;;;;;;;;;5070246;28;20036;-62
2023/08/22 04:40:05;;;;;;;1.57;0.93;;;;;;;;;;5067148;28;20475;-61
2023/08/22 04:42:31;;;;;;;2.20;0.97;;;;;;;;;;5066592;28;20029;-61
2023/08/22 04:44:58;;;;;;;0.63;0.60;;;;;;;;;;5067010;28;20028;-63
2023/08/22 04:47:25;;;;;;;1.33;0.80;;;;;;;;;;5068394;28;20039;-62
2023/08/22 04:49:51;;;;;;;4.47;1.27;;;;;;;;;;5072268;28;20073;-62
2023/08/22 04:52:18;;;;;;;1.03;0.60;;;;;;;;;;5071367;28;20052;-62
2023/08/22 04:54:44;;;;;;;0.63;0.47;;;;;;;;;;5072147;28;20387;-62
2023/08/22 04:57:11;;;;;;;0.70;0.43;;;;;;;;;;5071710;28;20028;-62
2023/08/22 04:59:38;;;;;;;3.93;1.40;;;;;;;;;;5070500;28;20070;-62
2023/08/22 05:02:05;;;;;;;0.37;0.33;;;;;;;;;;5066420;28;20040;-62
2023/08/22 05:04:31;;;;;;;2.47;1.23;;;;;;;;;;5064971;28;20039;-62
2023/08/22 05:06:58;;;;;;;3.20;1.03;;;;;;;;;;5066606;28;20109;-61
2023/08/22 05:09:25;;;;;;;8.57;1.23;;;;;;;;;;5067171;28;20502;-62
2023/08/22 05:11:52;;;;;;;1.10;0.67;;;;;;;;;;5071943;28;20024;-62
2023/08/22 05:14:18;;;;;;;4.40;0.50;;;;;;;;;;5071419;28;20029;-62
2023/08/22 05:16:45;;;;;;;2.93;0.90;;;;;;;;;;5071407;28;20107;-62
2023/08/22 05:19:12;;;;;;;1.03;0.50;;;;;;;;;;5071899;28;20348;-62
2023/08/22 05:21:39;;;;;;;3.63;0.80;;;;;;;;;;5070861;28;20028;-62
2023/08/22 05:24:07;;;;;;;0.93;0.83;;;;;;;;;;5066427;28;20033;-61
2023/08/22 05:26:34;;;;;;;1.77;0.87;;;;;;;;;;5068505;28;20045;-61
2023/08/22 05:29:00;;;;;;;1.70;1.20;;;;;;;;;;5070413;28;20033;-62
2023/08/22 05:31:28;;;;;;;1.30;0.77;;;;;;;;;;5070169;28;20467;-62
2023/08/22 05:33:54;;;;;;;0.80;0.63;;;;;;;;;;5075323;28;20426;-62
2023/08/22 05:36:21;;;;;;;5.60;1.20;;;;;;;;;;5075354;28;20034;-62
2023/08/22 05:38:48;;;;;;;1.60;0.80;;;;;;;;;;5075206;28;20028;-62
2023/08/22 05:41:16;;;;;;;4.03;1.13;;;;;;;;;;5075408;28;20104;-62
2023/08/22 05:43:44;;;;;;;2.63;0.80;;;;;;;;;;5074672;28;20029;-62
2023/08/22 05:46:11;;;;;;;0.80;0.50;;;;;;;;;;5069684;28;20111;-62
2023/08/22 05:48:38;;;;;;;0.87;0.40;;;;;;;;;;5070134;28;20024;-62
2023/08/22 05:51:05;;;;;;;1.30;0.77;;;;;;;;;;5069572;28;20480;-62
2023/08/22 05:53:32;;;;;;;10.17;1.23;;;;;;;;;;5069415;28;20039;-62
2023/08/22 05:55:59;;;;;;;2.53;1.13;;;;;;;;;;5075152;28;20483;-62
2023/08/22 05:58:25;;;;;;;1.73;0.80;;;;;;;;;;5075214;28;20468;-62
2023/08/22 06:00:52;;;;;;;1.67;0.57;;;;;;;;;;5074949;28;20055;-62
2023/08/22 06:03:20;;;;;;;0.90;0.60;;;;;;;;;;5074658;28;20036;-62
2023/08/22 06:05:46;;;;;;;1.97;1.00;;;;;;;;;;5074877;28;20036;-61
2023/08/22 06:08:13;;;;;;;0.87;0.70;;;;;;;;;;5069383;28;20067;-62
2023/08/22 06:10:40;;;;;;;15.57;1.47;;;;;;;;;;5069709;28;20383;-62
2023/08/22 06:13:06;;;;;;;0.50;0.40;;;;;;;;;;5069296;28;20043;-62
2023/08/22 06:15:33;;;;;;;15.57;1.20;;;;;;;;;;5069533;28;20463;-61
2023/08/22 06:18:00;;;;;;;1.53;0.90;;;;;;;;;;5073711;28;20017;-62
2023/08/22 06:20:26;;;;;;;1.07;0.80;;;;;;;;;;5074585;28;20048;-62
2023/08/22 06:22:53;;;;;;;2.77;0.90;;;;;;;;;;5074492;28;20038;-61
2023/08/22 06:25:20;;;;;;;2.43;0.70;;;;;;;;;;5074459;28;20035;-61
2023/08/22 06:27:46;;;;;;;1.10;0.80;;;;;;;;;;5074539;28;20436;-62
2023/08/22 06:30:13;;;;;;;1.70;0.77;;;;;;;;;;5069558;28;20027;-61
2023/08/22 06:32:40;;;;;;;2.50;1.00;;;;;;;;;;5068748;28;20106;-62
2023/08/22 06:35:08;;;;;;;0.57;0.40;;;;;;;;;;5068886;28;20052;-61
2023/08/22 06:37:34;;;;;;;0.23;0.23;;;;;;;;;;5068733;28;20103;-61
2023/08/22 06:40:03;;;;;;;4.53;0.70;;;;;;;;;;5073393;28;20491;-62
2023/08/22 06:42:30;;;;;;;1.90;0.40;;;;;;;;;;5073898;28;20028;-62
2023/08/22 06:44:57;;;;;;;0.87;0.40;;;;;;;;;;5074026;28;20031;-62
2023/08/22 06:47:23;;;;;;;0.73;0.63;;;;;;;;;;5074231;28;20082;-61
2023/08/22 06:49:50;;;;;;;1.07;0.60;;;;;;;;;;5074136;28;20402;-62
2023/08/22 06:52:17;;;;;;;1.07;0.60;;;;;;;;;;5069324;28;20110;-62
2023/08/22 06:54:43;;;;;;;2.43;0.67;;;;;;;;;;5068618;28;20531;-61
2023/08/22 06:57:10;;;;;;;1.13;0.73;;;;;;;;;;5068791;28;20046;-62
2023/08/22 06:59:37;;;;;;;1.27;0.57;;;;;;;;;;5068636;28;20031;-62
2023/08/22 07:02:03;;;;;;;0.50;0.50;;;;;;;;;;5072243;28;20063;-61
2023/08/22 07:04:31;;;;;;;1.10;0.67;;;;;;;;;;5073944;28;20371;-62
2023/08/22 07:06:58;;;;;;;0.83;0.40;;;;;;;;;;5073327;28;20016;-62
2023/08/22 07:09:25;;;;;;;0.80;0.33;;;;;;;;;;5073750;28;20074;-62
2023/08/22 07:11:52;;;;;;;0.57;0.30;;;;;;;;;;5073557;28;20031;-61
2023/08/22 07:14:18;;;;;;;0.40;0.30;;;;;;;;;;5069337;28;20043;-62
2023/08/22 07:16:45;;;;;;;0.47;0.40;;;;;;;;;;5068225;28;20032;-61
2023/08/22 07:19:12;;;;;;;0.30;0.30;;;;;;;;;;5068372;28;20417;-61
2023/08/22 07:21:39;;;;;;;2.13;0.60;;;;;;;;;;5068291;28;20028;-62
2023/08/22 07:24:06;;;;;;;1.47;0.60;;;;;;;;;;5070726;28;20097;-62
2023/08/22 07:26:32;;;;;;;0.43;0.30;;;;;;;;;;5073535;28;20021;-62
2023/08/22 07:28:59;;;;;;;2.67;0.77;;;;;;;;;;5073469;28;20192;-62
2023/08/22 07:31:26;;;;;;;0.80;0.63;;;;;;;;;;5073329;28;20021;-62
2023/08/22 07:33:52;;;;;;;0.90;0.70;;;;;;;;;;5072565;28;20032;-62
2023/08/22 07:36:20;;;;;;;0.87;0.57;;;;;;;;;;5069410;28;20021;-62
2023/08/22 07:38:47;;;;;;;1.00;0.80;;;;;;;;;;5067626;28;20094;-62
2023/08/22 07:41:13;;;;;;;1.23;0.63;;;;;;;;;;5067813;28;20043;-61
2023/08/22 07:43:40;;;;;;;0.67;0.47;;;;;;;;;;5067410;28;20162;-62
2023/08/22 07:46:07;;;;;;;1.50;0.77;;;;;;;;;;5070654;28;20024;-62
2023/08/22 07:48:33;;;;;;;0.63;0.23;;;;;;;;;;5072050;28;20028;-62
2023/08/22 07:51:00;;;;;;;4.60;0.50;;;;;;;;;;5072407;28;20027;-62
2023/08/22 07:53:27;;;;;;;1.03;0.60;;;;;;;;;;5072774;28;20028;-61
2023/08/22 07:55:53;;;;;;;2.47;0.60;;;;;;;;;;5072489;28;20021;-62
2023/08/22 07:58:20;;;;;;;0.30;0.30;;;;;;;;;;5069708;28;20029;-61
2023/08/22 08:00:49;;;;;;;0.37;0.30;;;;;;;;;;5067210;28;20033;-62
2023/08/22 08:03:16;;;;;;;0.17;0.17;;;;;;;;;;5067178;28;20048;-62
2023/08/22 08:05:43;;;;;;;0.20;0.20;;;;;;;;;;5067506;28;20025;-62
2023/08/22 08:08:09;;;;;;;0.77;0.53;;;;;;;;;;5069789;28;20032;-62
2023/08/22 08:10:39;;;;;;;0.53;0.30;;;;;;;;;;5072758;28;20108;-62
2023/08/22 08:13:06;;;;;;;0.60;0.30;;;;;;;;;;5072458;28;20020;-62
2023/08/22 08:15:33;;;;;;;0.67;0.40;;;;;;;;;;5072529;28;20027;-62
2023/08/22 08:18:01;;;;;;;1.80;0.60;;;;;;;;;;5072594;28;20040;-62
2023/08/22 08:20:27;;;;;;;0.67;0.30;;;;;;;;;;5069477;28;20017;-61
2023/08/22 08:22:54;;;;;;;0.53;0.30;;;;;;;;;;5066996;28;20039;-62
2023/08/22 08:25:21;;;;;;;0.30;0.30;;;;;;;;;;5066904;28;20153;-62
2023/08/22 08:27:48;;;;;;;0.67;0.40;;;;;;;;;;5066544;28;20360;-62
2023/08/22 08:30:14;;;;;;;0.50;0.40;;;;;;;;;;5069328;28;20059;-61
2023/08/22 08:32:41;;;;;;;2.63;0.60;;;;;;;;;;5072075;28;20025;-61
2023/08/22 08:35:08;;;;;;;2.27;0.67;;;;;;;;;;5072408;28;20540;-61
2023/08/22 08:37:35;;;;;;;0.50;0.40;;;;;;;;;;5072284;28;20025;-61
2023/08/22 08:40:05;;;;;;;1.60;0.60;;;;;;;;;;5072261;28;20028;-61
2023/08/22 08:42:33;;;;;;;0.50;0.33;;;;;;;;;;5068735;28;20021;-63
2023/08/22 08:45:00;;;;;;;0.47;0.40;;;;;;;;;;5066907;28;20032;-62
2023/08/22 08:47:27;;;;;;;1.40;0.43;;;;;;;;;;5066830;28;20027;-62
2023/08/22 08:49:54;;;;;;;0.30;0.30;;;;;;;;;;5067067;28;20472;-62
2023/08/22 08:52:21;;;;;;;0.37;0.30;;;;;;;;;;5068740;28;20476;-61
2023/08/22 08:54:48;;;;;;;6.87;0.50;;;;;;;;;;5072167;28;20039;-61
2023/08/22 08:57:15;;;;;;;1.23;0.50;;;;;;;;;;5072085;28;20479;-61
2023/08/22 08:59:42;;;;;;;1.43;0.73;;;;;;;;;;5071569;28;20024;-63
2023/08/22 09:02:14;;;;;;;2.03;0.63;;;;;;;;;;5075368;28;20043;-61
2023/08/22 09:04:40;;;;;;;1.43;0.57;;;;;;;;;;5073351;28;20079;-61
2023/08/22 09:07:10;;;;;;;1.07;0.40;;;;;;;;;;5070981;28;20086;-62
2023/08/22 09:09:37;;;;;;;1.30;0.77;;;;;;;;;;5070822;28;20044;-61
2023/08/22 09:12:10;;;;;;;0.27;0.27;;;;;;;;;;5070583;28;20471;-61
2023/08/22 09:14:49;;;;;;;0.57;0.37;;;;;;;;;;5072547;28;20025;-63
2023/08/22 09:17:16;;;;;;;1.53;0.40;;;;;;;;;;5076053;28;20013;-62
2023/08/22 09:19:43;;;;;;;2.80;0.83;;;;;;;;;;5075801;28;20056;-61
2023/08/22 09:22:13;;;;;;;3.30;0.60;;;;;;;;;;5075368;28;20439;-61
2023/08/22 09:24:40;;;;;;;0.67;0.43;;;;;;;;;;5075407;28;20479;-61
2023/08/22 09:27:07;;;;;;;1.20;0.63;;;;;;;;;;5072702;28;20028;-61
2023/08/22 09:29:35;;;;;;;0.83;0.60;;;;;;;;;;5070280;28;20017;-62
2023/08/22 09:32:02;;;;;;;4.07;0.90;;;;;;;;;;5069956;28;20402;-61
2023/08/22 09:34:29;;;;;;;0.20;0.20;;;;;;;;;;5069975;28;20083;-61
2023/08/22 09:36:55;;;;;;;3.00;0.50;;;;;;;;;;5073059;28;20368;-61
2023/08/22 09:39:23;;;;;;;0.43;0.43;;;;;;;;;;5075432;28;20376;-61
2023/08/22 09:41:56;;;;;;;2.17;0.40;;;;;;;;;;5075295;28;20063;-61
2023/08/22 09:44:24;;;;;;;0.33;0.30;;;;;;;;;;5074846;28;20028;-62
2023/08/22 09:46:51;;;;;;;2.53;0.63;;;;;;;;;;5075288;28;20482;-61
2023/08/22 09:49:18;;;;;;;0.67;0.50;;;;;;;;;;5071586;28;20039;-61
2023/08/22 09:51:45;;;;;;;1.67;0.60;;;;;;;;;;5069969;28;20025;-61
2023/08/22 09:54:13;;;;;;;1.83;0.60;;;;;;;;;;5069108;28;20044;-61
2023/08/22 09:56:39;;;;;;;0.80;0.30;;;;;;;;;;5069916;28;20684;-61
2023/08/22 09:59:06;;;;;;;0.83;0.50;;;;;;;;;;5072221;28;20039;-61
2023/08/22 10:01:35;;;;;;;21.70;0.50;;;;;;;;;;5075166;28;20459;-61
2023/08/22 10:04:05;;;;;;;1.23;0.60;;;;;;;;;;5074736;28;20028;-61
2023/08/22 10:06:33;;;;;;;2.07;0.90;;;;;;;;;;5074745;28;20113;-62
2023/08/22 10:09:00;;;;;;;1.07;0.50;;;;;;;;;;5074512;28;20407;-61
2023/08/22 10:11:28;;;;;;;1.50;0.97;;;;;;;;;;5071675;28;20493;-61
2023/08/22 10:13:54;;;;;;;0.57;0.40;;;;;;;;;;5069127;28;20032;-61
2023/08/22 10:16:21;;;;;;;18.33;0.87;;;;;;;;;;5069524;28;20025;-61
2023/08/22 10:18:48;;;;;;;0.40;0.40;;;;;;;;;;5069509;28;20055;-61
2023/08/22 10:21:16;;;;;;;1.00;0.70;;;;;;;;;;5071701;28;20025;-61
2023/08/22 10:23:56;;;;;;;2.07;0.80;;;;;;;;;;5073971;28;20029;-61
2023/08/22 10:26:23;;;;;;;0.67;0.57;;;;;;;;;;5074836;28;20544;-61
2023/08/22 10:29:08;;;;;;;2.57;0.87;;;;;;;;;;5074622;28;20028;-61
2023/08/22 10:31:55;;;;;;;12.65;0.93;;;;;;;;;;5074569;28;20028;-61
2023/08/22 10:34:21;;;;;;;0.57;0.50;;;;;;;;;;5069499;28;20032;-61
2023/08/22 10:36:59;;;;;;;1.90;0.80;;;;;;;;;;5069094;28;20025;-61
2023/08/22 10:39:41;;;;;;;10.67;0.93;;;;;;;;;;5068941;28;20032;-61
2023/08/22 10:42:18;;;;;;;0.83;0.50;;;;;;;;;;5068908;28;20020;-61
2023/08/22 10:44:50;;;;;;;2.17;0.97;;;;;;;;;;5053881;28;20025;-61
2023/08/22 10:47:17;;;;;;;2.80;0.80;;;;;;;;;;5054164;28;20028;-61
2023/08/22 10:49:44;;;;;;;1.83;0.87;;;;;;;;;;5054221;28;20032;-62
2023/08/22 10:52:11;;;;;;;1.37;0.63;;;;;;;;;;5053785;28;20025;-61
2023/08/22 10:54:57;;;;;;;4.03;1.03;;;;;;;;;;5073189;28;20229;-62
2023/08/22 10:57:24;;;;;;;0.47;0.40;;;;;;;;;;5068470;28;20024;-62
2023/08/22 10:59:55;;;;;;;0.80;0.60;;;;;;;;;;5068762;28;20025;-61
2023/08/22 11:02:23;;;;;;;0.20;0.20;;;;;;;;;;5067887;28;20035;-62
2023/08/22 11:04:50;;;;;;;0.90;0.60;;;;;;;;;;5067389;28;20024;-61
2023/08/22 11:07:17;;;;;;;0.77;0.40;;;;;;;;;;5073597;28;20560;-61
2023/08/22 11:09:43;;;;;;;6.73;1.00;;;;;;;;;;5073888;28;20395;-61
2023/08/22 11:12:23;;;;;;;1.37;0.90;;;;;;;;;;5073517;28;20463;-61
2023/08/22 11:14:50;;;;;;;0.80;0.63;;;;;;;;;;5072929;28;20032;-61
2023/08/22 11:17:18;;;;;;;0.27;0.27;;;;;;;;;;5071805;28;20127;-62
2023/08/22 11:19:45;;;;;;;0.50;0.50;;;;;;;;;;5068183;28;20024;-62
2023/08/22 11:22:12;;;;;;;4.73;0.80;;;;;;;;;;5068270;28;20104;-61
2023/08/22 11:24:42;;;;;;;3.43;0.73;;;;;;;;;;5067372;28;20078;-61
2023/08/22 11:27:09;;;;;;;1.63;0.63;;;;;;;;;;5068322;28;20025;-61
2023/08/22 11:29:44;;;;;;;1.90;0.73;;;;;;;;;;5073377;28;20047;-61
2023/08/22 11:32:27;;;;;;;0.40;0.40;;;;;;;;;;5073038;28;20028;-61
2023/08/22 11:34:59;;;;;;;1.50;0.77;;;;;;;;;;5073208;28;20028;-61
2023/08/22 11:37:26;;;;;;;1.67;1.20;;;;;;;;;;5072934;28;20021;-61
2023/08/22 11:39:53;;;;;;;13.83;1.57;;;;;;;;;;5071053;28;20025;-61
2023/08/22 11:42:23;;;;;;;1.57;0.70;;;;;;;;;;5067901;28;20029;-61
2023/08/22 11:44:59;;;;;;;9.20;0.80;;;;;;;;;;5067675;28;20174;-61
2023/08/22 11:47:42;;;;;;;1.40;1.03;;;;;;;;;;5067791;28;20022;-61
2023/08/22 11:50:15;;;;;;;2.00;1.00;;;;;;;;;;5069537;28;20017;-61
2023/08/22 11:52:42;;;;;;;3.43;1.33;;;;;;;;;;5072891;28;20032;-62
2023/08/22 11:55:10;;;;;;;2.17;0.57;;;;;;;;;;5072434;28;20039;-61
2023/08/22 11:57:38;;;;;;;1.13;0.90;;;;;;;;;;5072899;28;20348;-62
2023/08/22 12:00:08;;;;;;;2.30;1.13;;;;;;;;;;5073026;28;20481;-61
2023/08/22 12:02:36;;;;;;;2.53;1.13;;;;;;;;;;5069771;28;20379;-61
2023/08/22 12:05:03;;;;;;;1.53;1.10;;;;;;;;;;5066899;28;20024;-61
2023/08/22 12:07:30;;;;;;;1.97;0.93;;;;;;;;;;5067422;28;20741;-61
2023/08/22 12:10:00;;;;;;;5.83;0.77;;;;;;;;;;5067371;28;20024;-61
2023/08/22 12:12:27;;;;;;;0.30;0.30;;;;;;;;;;5069997;28;20483;-61
2023/08/22 12:14:53;;;;;;;1.10;0.60;;;;;;;;;;5072121;28;20040;-61
2023/08/22 12:17:20;;;;;;;22.97;0.90;;;;;;;;;;5072531;28;20507;-61
2023/08/22 12:19:47;;;;;;;1.23;0.87;;;;;;;;;;5072238;28;20051;-61
2023/08/22 12:22:13;;;;;;;0.53;0.40;;;;;;;;;;5072485;28;20039;-61
2023/08/22 12:24:40;;;;;;;9.43;1.03;;;;;;;;;;5069335;28;20029;-62
2023/08/22 12:27:07;;;;;;;1.40;0.73;;;;;;;;;;5067174;28;20055;-61
2023/08/22 12:29:33;;;;;;;4.90;0.93;;;;;;;;;;5067000;28;20542;-62
2023/08/22 12:32:00;;;;;;;1.10;0.90;;;;;;;;;;5067133;28;20027;-61
2023/08/22 12:34:27;;;;;;;1.23;0.90;;;;;;;;;;5068527;28;20068;-61
2023/08/22 12:36:53;;;;;;;3.03;1.13;;;;;;;;;;5072463;28;20422;-62
2023/08/22 12:39:20;;;;;;;1.00;0.53;;;;;;;;;;5072310;28;20024;-61
2023/08/22 12:41:47;;;;;;;18.33;1.00;;;;;;;;;;5072300;28;20047;-61
2023/08/22 12:44:14;;;;;;;0.67;0.60;;;;;;;;;;5072385;28;20039;-61
2023/08/22 12:46:41;;;;;;;5.07;1.10;;;;;;;;;;5069336;28;20060;-61
2023/08/22 12:49:07;;;;;;;1.53;0.70;;;;;;;;;;5048905;28;20438;-61
2023/08/22 12:51:34;;;;;;;10.63;1.93;;;;;;;;;;5066617;28;20020;-61
2023/08/22 12:54:01;;;;;;;10.53;0.90;;;;;;;;;;5066747;28;20063;-61
2023/08/22 12:56:27;;;;;;;0.93;0.50;;;;;;;;;;5068332;28;20070;-61
2023/08/22 12:58:57;;;;;;;3.13;1.17;;;;;;;;;;5072026;28;20099;-61
2023/08/22 13:01:24;;;;;;;15.20;1.73;;;;;;;;;;5072002;28;20055;-61
2023/08/22 13:03:51;;;;;;;2.00;1.17;;;;;;;;;;5072249;28;20029;-61
2023/08/22 13:06:19;;;;;;;5.17;1.13;;;;;;;;;;5071265;28;20056;-61
2023/08/22 13:08:46;;;;;;;3.53;1.50;;;;;;;;;;5069433;28;20020;-61
2023/08/22 13:11:12;;;;;;;9.53;1.13;;;;;;;;;;5066669;28;20036;-61
2023/08/22 13:13:39;;;;;;;4.80;1.13;;;;;;;;;;5066397;28;20033;-61
2023/08/22 13:16:05;;;;;;;2.67;1.10;;;;;;;;;;5066636;28;20035;-61
2023/08/22 13:18:32;;;;;;;2.07;0.87;;;;;;;;;;5067717;28;20503;-61
2023/08/22 13:20:59;;;;;;;1.50;0.87;;;;;;;;;;5071691;28;20021;-62
2023/08/22 13:23:25;;;;;;;3.23;0.90;;;;;;;;;;5071560;28;20017;-62
2023/08/22 13:25:54;;;;;;;25.47;2.80;;;;;;;;;;5063912;28;20039;-62
2023/08/22 13:28:20;;;;;;;1.97;0.53;;;;;;;;;;5071808;28;20127;-61
2023/08/22 13:30:47;;;;;;;1.80;0.97;;;;;;;;;;5069184;28;20025;-62
2023/08/22 13:33:14;;;;;;;1.40;0.93;;;;;;;;;;5066292;28;20059;-61
2023/08/22 13:35:40;;;;;;;21.47;1.30;;;;;;;;;;5066453;28;20056;-61
2023/08/22 13:38:07;;;;;;;1.30;0.70;;;;;;;;;;5065977;28;20029;-61
2023/08/22 13:40:34;;;;;;;1.07;0.70;;;;;;;;;;5067483;28;20104;-62
2023/08/22 13:43:00;;;;;;;0.93;0.70;;;;;;;;;;5051704;28;20032;-61
2023/08/22 13:45:27;;;;;;;1.47;0.73;;;;;;;;;;5051890;28;20029;-61
2023/08/22 13:47:55;;;;;;;0.90;0.60;;;;;;;;;;5054066;28;20044;-61
2023/08/22 13:50:22;;;;;;;0.40;0.40;;;;;;;;;;5055245;28;20029;-61
2023/08/22 13:52:49;;;;;;;1.83;0.73;;;;;;;;;;5071676;28;20398;-61
2023/08/22 13:55:15;;;;;;;2.47;1.10;;;;;;;;;;5069546;28;20029;-61
2023/08/22 13:57:42;;;;;;;0.50;0.50;;;;;;;;;;5068955;28;20079;-61
2023/08/22 14:00:09;;;;;;;5.00;0.87;;;;;;;;;;5069734;28;20048;-61
2023/08/22 14:02:35;;;;;;;3.50;1.10;;;;;;;;;;5070583;28;20021;-61
2023/08/22 14:05:02;;;;;;;0.43;0.43;;;;;;;;;;5074807;28;20028;-61
2023/08/22 14:07:29;;;;;;;14.70;0.77;;;;;;;;;;5074349;28;20036;-61
2023/08/22 14:09:55;;;;;;;0.50;0.50;;;;;;;;;;5074080;28;20013;-61
2023/08/22 14:12:22;;;;;;;1.70;0.63;;;;;;;;;;5074654;28;20029;-61
2023/08/22 14:14:49;;;;;;;0.63;0.50;;;;;;;;;;5073474;28;20036;-61
2023/08/22 14:17:15;;;;;;;1.33;0.80;;;;;;;;;;5069475;28;20028;-61
2023/08/22 14:19:42;;;;;;;3.60;0.63;;;;;;;;;;5069469;28;20425;-62
2023/08/22 14:22:08;;;;;;;1.00;0.60;;;;;;;;;;5069097;28;20151;-61
2023/08/22 14:24:35;;;;;;;0.27;0.27;;;;;;;;;;5069231;28;20060;-61
2023/08/22 14:27:02;;;;;;;2.27;0.63;;;;;;;;;;5074283;28;20028;-62
2023/08/22 14:29:29;;;;;;;3.43;0.43;;;;;;;;;;5074589;28;20111;-61
2023/08/22 14:31:56;;;;;;;9.50;1.00;;;;;;;;;;5074602;28;20111;-61
2023/08/22 14:34:22;;;;;;;0.50;0.37;;;;;;;;;;5074459;28;20036;-61
2023/08/22 14:36:49;;;;;;;0.30;0.30;;;;;;;;;;5072676;28;20036;-61
2023/08/22 14:39:16;;;;;;;0.20;0.20;;;;;;;;;;5068879;28;20020;-62
2023/08/22 14:41:42;;;;;;;2.00;0.50;;;;;;;;;;5068489;28;20387;-62
2023/08/22 14:44:10;;;;;;;0.63;0.30;;;;;;;;;;5068556;28;20028;-62